Time;durP1;ratioP1;P1;durP2;ratioP2;P2;SDS_P1;SDS_P2;PMS_P1;PMS_P2;Temp;Humidity;BMP_temperature;BMP_pressure;BME280_temperature;BME280_humidity;BME280_pressure;Samples;Min_cycle;Max_cycle;Signal;HPM_P1;HPM_P2
2021/12/13 00:00:42;;;;;;;;;;;;;;;;;;1904669;28;7014;-63
2021/12/13 00:01:51;;;;;;;;;;;;;;;;;;1905816;28;7005;-63
2021/12/13 00:02:53;;;;;;;;;;;;;;;;;;1904339;28;7030;-63
2021/12/13 00:04:04;;;;;;;;;;;;;;;;;;1905251;28;7010;-64
2021/12/13 00:05:02;;;;;;;;;;;;;;;;;;1906082;28;7042;-63
2021/12/13 00:06:11;;;;;;;;;;;;;;;;;;1905704;28;7005;-63
2021/12/13 00:07:28;;;;;;;;;;;;;;;;;;1905868;28;7308;-63
2021/12/13 00:08:32;;;;;;;;;;;;;;;;;;1903236;28;7057;-63
2021/12/13 00:09:33;;;;;;;;;;;;;;;;;;1905850;28;7097;-64
2021/12/13 00:10:34;;;;;;;;;;;;;;;;;;1905907;28;8039;-64
2021/12/13 00:11:34;;;;;;;;;;;;;;;;;;1905766;28;7014;-64
2021/12/13 00:12:34;;;;;;;;;;;;;;;;;;1906142;28;7026;-63
2021/12/13 00:13:44;;;;;;;;;;;;;;;;;;1905924;28;7105;-63
2021/12/13 00:14:52;;;;;;;;;;;;;;;;;;1905421;28;7010;-64
2021/12/13 00:15:59;;;;;;;;;;;;;;;;;;1905297;28;7113;-63
2021/12/13 00:17:00;;;;;;;;;;;;;;;;;;1904528;28;7013;-64
2021/12/13 00:18:02;;;;;;;;;;;;;;;;;;1905113;28;7081;-63
2021/12/13 00:19:03;;;;;;;;;;;;;;;;;;1905868;28;7017;-63
2021/12/13 00:20:28;;;;;;;;;;;;;;;;;;1905823;28;7309;-63
2021/12/13 00:21:36;;;;;;;;;;;;;;;;;;1905234;28;7380;-64
2021/12/13 00:22:36;;;;;;;;;;;;;;;;;;1905913;28;7416;-63
2021/12/13 00:23:37;;;;;;;;;;;;;;;;;;1905637;28;7100;-63
2021/12/13 00:24:39;;;;;;;;;;;;;;;;;;1905557;28;7116;-63
2021/12/13 00:25:39;;;;;;;;;;;;;;;;;;1905785;28;7190;-63
2021/12/13 00:26:46;;;;;;;;;;;;;;;;;;1904747;28;7010;-63
2021/12/13 00:27:47;;;;;;;;;;;;;;;;;;1905157;28;7120;-63
2021/12/13 00:28:45;;;;;;;;;;;;;;;;;;1905399;28;7368;-64
2021/12/13 00:29:52;;;;;;;;;;;;;;;;;;1905001;28;7139;-64
2021/12/13 00:30:49;;;;;;;;;;;;;;;;;;1905218;28;7018;-64
2021/12/13 00:31:47;;;;;;;;;;;;;;;;;;1905874;28;7030;-64
2021/12/13 00:32:47;;;;;;;;;;;;;;;;;;1903985;28;7429;-64
2021/12/13 00:33:47;;;;;;;;;;;;;;;;;;1903188;28;7049;-64
2021/12/13 00:34:56;;;;;;;;;;;;;;;;;;1904273;28;7029;-64
2021/12/13 00:36:01;;;;;;;;;;;;;;;;;;1905535;28;7025;-63
2021/12/13 00:37:07;;;;;;;;;;;;;;;;;;1905346;28;7009;-63
2021/12/13 00:38:06;;;;;;;;;;;;;;;;;;1905769;28;7109;-64
2021/12/13 00:39:12;;;;;;;;;;;;;;;;;;1905975;28;8119;-63
2021/12/13 00:40:17;;;;;;;;;;;;;;;;;;1899612;28;7030;-63
2021/12/13 00:41:18;;;;;;;;;;;;;;;;;;1905380;28;7101;-63
2021/12/13 00:42:16;;;;;;;;;;;;;;;;;;1902222;28;7054;-63
2021/12/13 00:43:17;;;;;;;;;;;;;;;;;;1905986;28;7025;-64
2021/12/13 00:44:22;;;;;;;;;;;;;;;;;;1905682;28;7013;-64
2021/12/13 00:45:22;;;;;;;;;;;;;;;;;;1905560;28;7050;-63
2021/12/13 00:46:22;;;;;;;;;;;;;;;;;;1905441;28;7336;-64
2021/12/13 00:47:22;;;;;;;;;;;;;;;;;;1896213;28;7211;-63
2021/12/13 00:48:22;;;;;;;;;;;;;;;;;;1891670;28;7236;-63
2021/12/13 00:49:22;;;;;;;;;;;;;;;;;;1903744;28;7113;-62
2021/12/13 00:50:23;;;;;;;;;;;;;;;;;;1905901;28;7013;-63
2021/12/13 00:51:25;;;;;;;;;;;;;;;;;;1906315;28;7009;-64
2021/12/13 00:52:24;;;;;;;;;;;;;;;;;;1905797;28;7018;-64
2021/12/13 00:53:21;;;;;;;;;;;;;;;;;;1905538;28;7100;-63
2021/12/13 00:54:21;;;;;;;;;;;;;;;;;;1905354;28;7340;-64
2021/12/13 00:55:23;;;;;;;;;;;;;;;;;;1905043;28;7013;-63
2021/12/13 00:56:38;;;;;;;;;;;;;;;;;;1905788;28;7037;-63
2021/12/13 00:57:39;;;;;;;;;;;;;;;;;;1904066;28;8055;-63
2021/12/13 00:58:37;;;;;;;;;;;;;;;;;;1905513;28;7013;-63
2021/12/13 00:59:40;;;;;;;;;;;;;;;;;;1905589;28;7116;-63
2021/12/13 01:00:46;;;;;;;;;;;;;;;;;;1901226;28;7005;-63
2021/12/13 01:01:49;;;;;;;;;;;;;;;;;;1902352;28;7009;-63
2021/12/13 01:02:50;;;;;;;;;;;;;;;;;;1905498;28;7005;-64
2021/12/13 01:03:49;;;;;;;;;;;;;;;;;;1904219;28;7104;-63
2021/12/13 01:04:54;;;;;;;;;;;;;;;;;;1906558;28;7117;-63
2021/12/13 01:06:11;;;;;;;;;;;;;;;;;;1905852;28;7010;-63
2021/12/13 01:07:18;;;;;;;;;;;;;;;;;;1904781;28;7092;-63
2021/12/13 01:08:33;;;;;;;;;;;;;;;;;;1904220;28;7092;-63
2021/12/13 01:09:49;;;;;;;;;;;;;;;;;;1905461;28;7320;-63
2021/12/13 01:10:48;;;;;;;;;;;;;;;;;;1904884;28;7141;-63
2021/12/13 01:11:51;;;;;;;;;;;;;;;;;;1905112;28;7097;-64
2021/12/13 01:12:52;;;;;;;;;;;;;;;;;;1901350;28;8012;-63
2021/12/13 01:14:03;;;;;;;;;;;;;;;;;;1895583;28;7054;-63
2021/12/13 01:15:11;;;;;;;;;;;;;;;;;;1898354;28;7042;-64
2021/12/13 01:17:47;;;;;;;;;;;;;;;;;;1896278;28;7009;-63
2021/12/13 01:20:24;;;;;;;;;;;;;;;;;;1904714;28;7006;-64
2021/12/13 01:21:33;;;;;;;;;;;;;;;;;;1899321;28;8047;-64
2021/12/13 01:22:56;;;;;;;;;;;;;;;;;;1905458;28;7164;-63
2021/12/13 01:24:03;;;;;;;;;;;;;;;;;;1904788;28;7092;-63
2021/12/13 01:25:17;;;;;;;;;;;;;;;;;;1904879;28;7088;-63
2021/12/13 01:27:26;;;;;;;;;;;;;;;;;;1904183;28;7320;-64
2021/12/13 01:28:31;;;;;;;;;;;;;;;;;;1904628;28;7054;-63
2021/12/13 01:29:32;;;;;;;;;;;;;;;;;;1902511;28;7113;-63
2021/12/13 01:30:35;;;;;;;;;;;;;;;;;;1904855;28;7010;-63
2021/12/13 01:31:44;;;;;;;;;;;;;;;;;;1905496;28;7092;-63
2021/12/13 01:32:44;;;;;;;;;;;;;;;;;;1904501;28;7101;-63
2021/12/13 01:33:44;;;;;;;;;;;;;;;;;;1904448;28;7042;-64
2021/12/13 01:34:45;;;;;;;;;;;;;;;;;;1904103;28;7046;-64
2021/12/13 01:35:45;;;;;;;;;;;;;;;;;;1905557;28;7129;-63
2021/12/13 01:36:52;;;;;;;;;;;;;;;;;;1904710;28;7042;-63
2021/12/13 01:37:53;;;;;;;;;;;;;;;;;;1905157;28;7092;-64
2021/12/13 01:38:53;;;;;;;;;;;;;;;;;;1905394;28;7129;-64
2021/12/13 01:39:53;;;;;;;;;;;;;;;;;;1904580;28;7021;-63
2021/12/13 01:40:53;;;;;;;;;;;;;;;;;;1905427;28;8036;-63
2021/12/13 01:41:58;;;;;;;;;;;;;;;;;;1905072;28;7005;-64
2021/12/13 01:43:03;;;;;;;;;;;;;;;;;;1905295;28;7018;-63
2021/12/13 01:44:09;;;;;;;;;;;;;;;;;;1905431;28;7005;-63
2021/12/13 01:45:10;;;;;;;;;;;;;;;;;;1897620;28;7088;-63
2021/12/13 01:46:07;;;;;;;;;;;;;;;;;;1905056;28;7316;-64
2021/12/13 01:47:10;;;;;;;;;;;;;;;;;;1905540;28;7005;-63
2021/12/13 01:48:14;;;;;;;;;;;;;;;;;;1905462;28;7134;-64
2021/12/13 01:49:12;;;;;;;;;;;;;;;;;;1905268;28;8103;-64
2021/12/13 01:50:17;;;;;;;;;;;;;;;;;;1905004;28;7009;-63
2021/12/13 01:51:19;;;;;;;;;;;;;;;;;;1905309;28;7380;-63
2021/12/13 01:52:26;;;;;;;;;;;;;;;;;;1904704;28;7018;-63
2021/12/13 01:53:30;;;;;;;;;;;;;;;;;;1905254;28;7014;-63
2021/12/13 01:54:28;;;;;;;;;;;;;;;;;;1905344;28;7113;-64
2021/12/13 01:55:33;;;;;;;;;;;;;;;;;;1905290;28;7029;-63
2021/12/13 01:56:53;;;;;;;;;;;;;;;;;;1905190;28;8123;-63
2021/12/13 01:58:07;;;;;;;;;;;;;;;;;;1905303;28;7010;-64
2021/12/13 01:59:27;;;;;;;;;;;;;;;;;;1905024;28;7050;-63
2021/12/13 02:01:09;;;;;;;;;;;;;;;;;;1899547;28;7096;-64
2021/12/13 02:02:01;;;;;;;;;;;;;;;;;;1905159;28;7113;-64
2021/12/13 02:02:59;;;;;;;;;;;;;;;;;;1905099;28;7088;-64
2021/12/13 02:04:03;;;;;;;;;;;;;;;;;;1903777;28;7097;-63
2021/12/13 02:05:00;;;;;;;;;;;;;;;;;;1905735;28;7009;-63
2021/12/13 02:05:59;;;;;;;;;;;;;;;;;;1905586;28;7321;-64
2021/12/13 02:07:02;;;;;;;;;;;;;;;;;;1905225;28;7113;-64
2021/12/13 02:08:07;;;;;;;;;;;;;;;;;;1905421;28;7300;-63
2021/12/13 02:09:10;;;;;;;;;;;;;;;;;;1904931;28;7110;-62
2021/12/13 02:10:12;;;;;;;;;;;;;;;;;;1896623;28;7089;-63
2021/12/13 02:11:09;;;;;;;;;;;;;;;;;;1896831;28;7010;-63
2021/12/13 02:12:13;;;;;;;;;;;;;;;;;;1904906;28;7005;-63
2021/12/13 02:13:15;;;;;;;;;;;;;;;;;;1905241;28;7025;-63
2021/12/13 02:14:17;;;;;;;;;;;;;;;;;;1905417;28;7093;-63
2021/12/13 02:17:53;;;;;;;;;;;;;;;;;;1904315;28;7001;-64
2021/12/13 02:18:55;;;;;;;;;;;;;;;;;;1903645;28;7093;-64
2021/12/13 02:19:58;;;;;;;;;;;;;;;;;;1903456;28;7013;-64
2021/12/13 02:21:05;;;;;;;;;;;;;;;;;;1904510;28;7013;-64
2021/12/13 02:22:08;;;;;;;;;;;;;;;;;;1897315;28;7289;-64
2021/12/13 02:23:06;;;;;;;;;;;;;;;;;;1898752;28;7037;-64
2021/12/13 02:24:07;;;;;;;;;;;;;;;;;;1899391;28;7097;-64
2021/12/13 02:25:07;;;;;;;;;;;;;;;;;;1906502;28;7025;-63
2021/12/13 02:26:07;;;;;;;;;;;;;;;;;;1898920;28;7010;-64
2021/12/13 02:27:06;;;;;;;;;;;;;;;;;;1898668;28;7332;-64
2021/12/13 02:28:10;;;;;;;;;;;;;;;;;;1898449;28;7006;-64
2021/12/13 02:29:12;;;;;;;;;;;;;;;;;;1897422;28;7113;-64
2021/12/13 02:30:16;;;;;;;;;;;;;;;;;;1905766;28;7281;-64
2021/12/13 02:31:19;;;;;;;;;;;;;;;;;;1906097;28;7009;-63
2021/12/13 02:32:17;;;;;;;;;;;;;;;;;;1906358;28;7014;-63
2021/12/13 02:33:19;;;;;;;;;;;;;;;;;;1906311;28;7104;-63
2021/12/13 02:34:18;;;;;;;;;;;;;;;;;;1905403;28;7380;-63
2021/12/13 02:35:19;;;;;;;;;;;;;;;;;;1906817;28;7308;-63
2021/12/13 02:36:22;;;;;;;;;;;;;;;;;;1907075;28;7041;-64
2021/12/13 02:37:20;;;;;;;;;;;;;;;;;;1906075;28;7312;-64
2021/12/13 02:38:18;;;;;;;;;;;;;;;;;;1906716;28;7089;-63
2021/12/13 02:39:19;;;;;;;;;;;;;;;;;;1906275;28;7248;-63
2021/12/13 02:40:18;;;;;;;;;;;;;;;;;;1906499;28;7046;-63
2021/12/13 02:41:20;;;;;;;;;;;;;;;;;;1906276;28;7046;-63
2021/12/13 02:42:18;;;;;;;;;;;;;;;;;;1906439;28;7105;-64
2021/12/13 02:43:19;;;;;;;;;;;;;;;;;;1902463;28;7038;-64
2021/12/13 02:44:22;;;;;;;;;;;;;;;;;;1906247;28;7236;-64
2021/12/13 02:45:25;;;;;;;;;;;;;;;;;;1905789;28;7130;-63
2021/12/13 02:46:23;;;;;;;;;;;;;;;;;;1906934;28;7009;-63
2021/12/13 02:47:24;;;;;;;;;;;;;;;;;;1905909;28;7077;-63
2021/12/13 02:48:31;;;;;;;;;;;;;;;;;;1906166;28;7351;-64
2021/12/13 02:49:28;;;;;;;;;;;;;;;;;;1906413;28;7096;-63
2021/12/13 02:50:46;;;;;;;;;;;;;;;;;;1906667;28;8119;-62
2021/12/13 02:51:47;;;;;;;;;;;;;;;;;;1904513;28;7030;-64
2021/12/13 02:52:45;;;;;;;;;;;;;;;;;;1906551;28;7100;-64
2021/12/13 02:53:52;;;;;;;;;;;;;;;;;;1906341;28;7100;-64
2021/12/13 02:55:03;;;;;;;;;;;;;;;;;;1906170;28;8055;-63
2021/12/13 02:56:01;;;;;;;;;;;;;;;;;;1904317;28;7010;-64
2021/12/13 02:57:00;;;;;;;;;;;;;;;;;;1911807;28;7133;-63
2021/12/13 02:58:00;;;;;;;;;;;;;;;;;;1906371;28;7133;-63
2021/12/13 02:58:58;;;;;;;;;;;;;;;;;;1905931;28;7152;-64
2021/12/13 02:59:59;;;;;;;;;;;;;;;;;;1906235;28;7013;-64
2021/12/13 03:01:05;;;;;;;;;;;;;;;;;;1906428;28;7010;-63
2021/12/13 03:02:06;;;;;;;;;;;;;;;;;;1907081;28;7108;-64
2021/12/13 03:03:08;;;;;;;;;;;;;;;;;;1907369;28;7112;-64
2021/12/13 03:04:08;;;;;;;;;;;;;;;;;;1905648;28;7168;-64
2021/12/13 03:05:10;;;;;;;;;;;;;;;;;;1906571;28;7096;-63
2021/12/13 03:06:09;;;;;;;;;;;;;;;;;;1905914;28;7013;-63
2021/12/13 03:07:11;;;;;;;;;;;;;;;;;;1906453;28;7046;-63
2021/12/13 03:08:16;;;;;;;;;;;;;;;;;;1906294;28;8023;-64
2021/12/13 03:09:17;;;;;;;;;;;;;;;;;;1905961;28;7364;-63
2021/12/13 03:10:20;;;;;;;;;;;;;;;;;;1906368;28;7038;-63
2021/12/13 03:11:25;;;;;;;;;;;;;;;;;;1904600;28;8159;-63
2021/12/13 03:12:25;;;;;;;;;;;;;;;;;;1906502;28;7172;-63
2021/12/13 03:13:23;;;;;;;;;;;;;;;;;;1906053;28;7156;-64
2021/12/13 03:14:24;;;;;;;;;;;;;;;;;;1906270;28;7097;-64
2021/12/13 03:15:23;;;;;;;;;;;;;;;;;;1906834;28;7092;-64
2021/12/13 03:16:25;;;;;;;;;;;;;;;;;;1905371;28;7372;-64
2021/12/13 03:17:28;;;;;;;;;;;;;;;;;;1905776;28;7010;-64
2021/12/13 03:18:38;;;;;;;;;;;;;;;;;;1905507;28;7096;-64
2021/12/13 03:19:38;;;;;;;;;;;;;;;;;;1904291;28;8071;-64
2021/12/13 03:20:54;;;;;;;;;;;;;;;;;;1905339;28;7014;-64
2021/12/13 03:22:10;;;;;;;;;;;;;;;;;;1905619;28;7025;-63
2021/12/13 03:23:17;;;;;;;;;;;;;;;;;;1906011;28;8044;-63
2021/12/13 03:24:29;;;;;;;;;;;;;;;;;;1905619;28;7561;-63
2021/12/13 03:25:34;;;;;;;;;;;;;;;;;;1905730;28;7009;-64
2021/12/13 03:26:34;;;;;;;;;;;;;;;;;;1906282;28;7249;-64
2021/12/13 03:27:37;;;;;;;;;;;;;;;;;;1897735;28;7074;-63
2021/12/13 03:28:54;;;;;;;;;;;;;;;;;;1905269;28;7017;-63
2021/12/13 03:30:24;;;;;;;;;;;;;;;;;;1911147;28;7041;-64
2021/12/13 03:31:26;;;;;;;;;;;;;;;;;;1889930;28;7031;-64
2021/12/13 03:32:30;;;;;;;;;;;;;;;;;;1900874;28;7110;-64
2021/12/13 03:33:48;;;;;;;;;;;;;;;;;;1905577;28;7030;-63
2021/12/13 03:35:04;;;;;;;;;;;;;;;;;;1897614;28;7009;-64
2021/12/13 03:36:06;;;;;;;;;;;;;;;;;;1898430;28;7279;-63
2021/12/13 03:37:09;;;;;;;;;;;;;;;;;;1898134;28;7013;-64
2021/12/13 03:38:10;;;;;;;;;;;;;;;;;;1906375;28;7097;-63
2021/12/13 03:39:09;;;;;;;;;;;;;;;;;;1905926;28;7005;-63
2021/12/13 03:40:11;;;;;;;;;;;;;;;;;;1906103;28;7013;-64
2021/12/13 03:41:10;;;;;;;;;;;;;;;;;;1906664;28;7046;-63
2021/12/13 03:42:12;;;;;;;;;;;;;;;;;;1906354;28;7013;-63
2021/12/13 03:43:17;;;;;;;;;;;;;;;;;;1905651;28;7006;-64
2021/12/13 03:44:20;;;;;;;;;;;;;;;;;;1905878;28;7113;-63
2021/12/13 03:45:23;;;;;;;;;;;;;;;;;;1905799;28;7089;-63
2021/12/13 03:46:23;;;;;;;;;;;;;;;;;;1905899;28;7005;-64
2021/12/13 03:47:25;;;;;;;;;;;;;;;;;;1905930;28;7096;-63
2021/12/13 03:48:25;;;;;;;;;;;;;;;;;;1905772;28;7113;-63
2021/12/13 03:49:24;;;;;;;;;;;;;;;;;;1905728;28;7365;-64
2021/12/13 03:50:26;;;;;;;;;;;;;;;;;;1905768;28;7092;-63
2021/12/13 03:51:27;;;;;;;;;;;;;;;;;;1905871;28;7006;-63
2021/12/13 03:52:27;;;;;;;;;;;;;;;;;;1905785;28;8051;-63
2021/12/13 03:53:27;;;;;;;;;;;;;;;;;;1906791;28;7042;-63
2021/12/13 03:54:27;;;;;;;;;;;;;;;;;;1905780;28;7006;-64
2021/12/13 03:55:28;;;;;;;;;;;;;;;;;;1905867;28;7144;-64
2021/12/13 03:56:31;;;;;;;;;;;;;;;;;;1904634;28;8179;-63
2021/12/13 03:57:30;;;;;;;;;;;;;;;;;;1905587;28;7398;-63
2021/12/13 03:58:30;;;;;;;;;;;;;;;;;;1906065;28;7037;-64
2021/12/13 03:59:28;;;;;;;;;;;;;;;;;;1905786;28;7097;-62
2021/12/13 04:00:28;;;;;;;;;;;;;;;;;;1904201;28;7029;-64
2021/12/13 04:01:30;;;;;;;;;;;;;;;;;;1905919;28;7093;-64
2021/12/13 04:02:31;;;;;;;;;;;;;;;;;;1905920;28;8071;-63
2021/12/13 04:03:29;;;;;;;;;;;;;;;;;;1904138;28;7093;-63
2021/12/13 04:04:26;;;;;;;;;;;;;;;;;;1905625;28;7092;-64
2021/12/13 04:05:26;;;;;;;;;;;;;;;;;;1906101;28;7092;-64
2021/12/13 04:06:23;;;;;;;;;;;;;;;;;;1905063;28;7092;-63
2021/12/13 04:07:24;;;;;;;;;;;;;;;;;;1905946;28;7105;-64
2021/12/13 04:08:23;;;;;;;;;;;;;;;;;;1905272;28;7114;-64
2021/12/13 04:09:22;;;;;;;;;;;;;;;;;;1901914;28;7773;-63
2021/12/13 04:10:22;;;;;;;;;;;;;;;;;;1905515;28;7010;-64
2021/12/13 04:11:21;;;;;;;;;;;;;;;;;;1907238;28;7038;-63
2021/12/13 04:12:22;;;;;;;;;;;;;;;;;;1905875;28;7006;-63
2021/12/13 04:13:23;;;;;;;;;;;;;;;;;;1905968;28;7013;-64
2021/12/13 04:14:27;;;;;;;;;;;;;;;;;;1904335;28;7281;-63
2021/12/13 04:15:30;;;;;;;;;;;;;;;;;;1905956;28;7029;-63
2021/12/13 04:16:36;;;;;;;;;;;;;;;;;;1905223;28;7009;-63
2021/12/13 04:17:42;;;;;;;;;;;;;;;;;;1904936;28;7006;-63
2021/12/13 04:19:53;;;;;;;;;;;;;;;;;;1905286;28;7042;-63
2021/12/13 04:20:56;;;;;;;;;;;;;;;;;;1904932;28;7029;-64
2021/12/13 04:21:59;;;;;;;;;;;;;;;;;;1905458;28;8036;-63
2021/12/13 04:22:59;;;;;;;;;;;;;;;;;;1904975;28;7197;-63
2021/12/13 04:24:00;;;;;;;;;;;;;;;;;;1904652;28;7006;-63
2021/12/13 04:24:57;;;;;;;;;;;;;;;;;;1905574;28;7009;-63
2021/12/13 04:25:56;;;;;;;;;;;;;;;;;;1905211;28;7038;-63
2021/12/13 04:26:57;;;;;;;;;;;;;;;;;;1905663;28;7227;-63
2021/12/13 04:27:57;;;;;;;;;;;;;;;;;;1905364;28;7116;-63
2021/12/13 04:28:59;;;;;;;;;;;;;;;;;;1905240;28;7380;-63
2021/12/13 04:30:02;;;;;;;;;;;;;;;;;;1905207;28;7215;-63
2021/12/13 04:31:04;;;;;;;;;;;;;;;;;;1905528;28;7075;-64
2021/12/13 04:32:13;;;;;;;;;;;;;;;;;;1911936;28;7133;-64
2021/12/13 04:33:19;;;;;;;;;;;;;;;;;;1913458;28;7025;-64
2021/12/13 04:34:16;;;;;;;;;;;;;;;;;;1912461;28;7010;-64
2021/12/13 04:35:20;;;;;;;;;;;;;;;;;;1912866;28;8015;-64
2021/12/13 04:36:21;;;;;;;;;;;;;;;;;;1912794;28;7057;-64
2021/12/13 04:37:20;;;;;;;;;;;;;;;;;;1906382;28;7005;-64
2021/12/13 04:38:22;;;;;;;;;;;;;;;;;;1911010;28;7009;-63
2021/12/13 04:39:30;;;;;;;;;;;;;;;;;;1920765;28;7096;-64
2021/12/13 04:40:30;;;;;;;;;;;;;;;;;;1912903;28;7109;-63
2021/12/13 04:41:34;;;;;;;;;;;;;;;;;;1913642;28;7005;-64
2021/12/13 04:42:31;;;;;;;;;;;;;;;;;;1913704;28;8008;-63
2021/12/13 04:43:34;;;;;;;;;;;;;;;;;;1913259;28;7006;-63
2021/12/13 04:44:37;;;;;;;;;;;;;;;;;;1912982;28;7050;-64
2021/12/13 04:45:38;;;;;;;;;;;;;;;;;;1911979;28;7045;-63
2021/12/13 04:46:38;;;;;;;;;;;;;;;;;;1913066;28;7113;-63
2021/12/13 04:47:43;;;;;;;;;;;;;;;;;;1913273;28;7041;-63
2021/12/13 04:48:45;;;;;;;;;;;;;;;;;;1913812;28;7093;-63
2021/12/13 04:49:46;;;;;;;;;;;;;;;;;;1920995;28;7092;-64
2021/12/13 04:50:51;;;;;;;;;;;;;;;;;;1920574;28;7001;-64
2021/12/13 04:51:54;;;;;;;;;;;;;;;;;;1920518;28;7017;-63
2021/12/13 04:52:53;;;;;;;;;;;;;;;;;;1920597;28;7335;-63
2021/12/13 04:53:52;;;;;;;;;;;;;;;;;;1903842;28;7014;-64
2021/12/13 04:54:53;;;;;;;;;;;;;;;;;;1905706;28;7029;-64
2021/12/13 04:55:53;;;;;;;;;;;;;;;;;;1913418;28;7022;-64
2021/12/13 04:56:51;;;;;;;;;;;;;;;;;;1912824;28;7150;-63
2021/12/13 04:57:50;;;;;;;;;;;;;;;;;;1911891;28;7005;-64
2021/12/13 04:58:57;;;;;;;;;;;;;;;;;;1912612;28;7005;-64
2021/12/13 04:59:57;;;;;;;;;;;;;;;;;;1913114;28;7005;-64
2021/12/13 05:00:57;;;;;;;;;;;;;;;;;;1913127;28;7109;-64
2021/12/13 05:01:57;;;;;;;;;;;;;;;;;;1912619;28;7476;-63
2021/12/13 05:02:58;;;;;;;;;;;;;;;;;;1912888;28;8915;-63
2021/12/13 05:04:00;;;;;;;;;;;;;;;;;;1914488;28;7104;-64
2021/12/13 05:04:59;;;;;;;;;;;;;;;;;;1920525;28;7005;-63
2021/12/13 05:05:58;;;;;;;;;;;;;;;;;;1921136;28;8027;-64
2021/12/13 05:06:57;;;;;;;;;;;;;;;;;;1920615;28;8078;-63
2021/12/13 05:07:56;;;;;;;;;;;;;;;;;;1920748;28;7446;-63
2021/12/13 05:08:56;;;;;;;;;;;;;;;;;;1914988;28;7001;-63
2021/12/13 05:09:55;;;;;;;;;;;;;;;;;;1913280;28;7005;-63
2021/12/13 05:10:52;;;;;;;;;;;;;;;;;;1912719;28;7038;-63
2021/12/13 05:12:03;;;;;;;;;;;;;;;;;;1914204;28;7018;-64
2021/12/13 05:13:04;;;;;;;;;;;;;;;;;;1920740;28;7092;-63
2021/12/13 05:14:03;;;;;;;;;;;;;;;;;;1920798;28;7009;-64
2021/12/13 05:15:05;;;;;;;;;;;;;;;;;;1920877;28;7005;-63
2021/12/13 05:16:14;;;;;;;;;;;;;;;;;;1912716;28;7092;-63
2021/12/13 05:17:17;;;;;;;;;;;;;;;;;;1912912;28;7037;-64
2021/12/13 05:18:18;;;;;;;;;;;;;;;;;;1913368;28;7088;-63
2021/12/13 05:19:24;;;;;;;;;;;;;;;;;;1904452;28;7038;-64
2021/12/13 05:20:29;;;;;;;;;;;;;;;;;;1904792;28;7014;-63
2021/12/13 05:21:32;;;;;;;;;;;;;;;;;;1911338;28;7025;-63
2021/12/13 05:22:31;;;;;;;;;;;;;;;;;;1912542;28;7006;-64
2021/12/13 05:23:31;;;;;;;;;;;;;;;;;;1915749;28;7300;-63
2021/12/13 05:24:31;;;;;;;;;;;;;;;;;;1920103;28;7042;-64
2021/12/13 05:25:35;;;;;;;;;;;;;;;;;;1920040;28;7293;-63
2021/12/13 05:26:35;;;;;;;;;;;;;;;;;;1913101;28;7048;-63
2021/12/13 05:27:35;;;;;;;;;;;;;;;;;;1914798;28;7013;-63
2021/12/13 05:28:44;;;;;;;;;;;;;;;;;;1920336;28;7144;-63
2021/12/13 05:29:45;;;;;;;;;;;;;;;;;;1919190;28;7005;-64
2021/12/13 05:30:54;;;;;;;;;;;;;;;;;;1920355;28;7100;-63
2021/12/13 05:31:54;;;;;;;;;;;;;;;;;;1911879;28;7093;-63
2021/12/13 05:32:55;;;;;;;;;;;;;;;;;;1917451;28;8122;-63
2021/12/13 05:33:55;;;;;;;;;;;;;;;;;;1912573;28;7034;-63
2021/12/13 05:34:55;;;;;;;;;;;;;;;;;;1911989;28;7005;-63
2021/12/13 05:35:54;;;;;;;;;;;;;;;;;;1912642;28;7013;-63
2021/12/13 05:36:57;;;;;;;;;;;;;;;;;;1915842;28;7013;-63
2021/12/13 05:37:57;;;;;;;;;;;;;;;;;;1914059;28;7137;-63
2021/12/13 05:39:10;;;;;;;;;;;;;;;;;;1920639;28;7323;-63
2021/12/13 05:40:11;;;;;;;;;;;;;;;;;;1920637;28;7044;-64
2021/12/13 05:41:12;;;;;;;;;;;;;;;;;;1921048;28;7291;-64
2021/12/13 05:42:11;;;;;;;;;;;;;;;;;;1920435;28;7046;-64
2021/12/13 05:43:15;;;;;;;;;;;;;;;;;;1920976;28;7112;-63
2021/12/13 05:44:12;;;;;;;;;;;;;;;;;;1920773;28;7009;-63
2021/12/13 05:45:13;;;;;;;;;;;;;;;;;;1920728;28;7348;-63
2021/12/13 05:46:15;;;;;;;;;;;;;;;;;;1921022;28;7017;-63
2021/12/13 05:47:21;;;;;;;;;;;;;;;;;;1921002;28;7108;-63
2021/12/13 05:48:22;;;;;;;;;;;;;;;;;;1913218;28;7117;-63
2021/12/13 05:49:23;;;;;;;;;;;;;;;;;;1912494;28;7006;-63
2021/12/13 05:50:29;;;;;;;;;;;;;;;;;;1921211;28;7034;-63
2021/12/13 05:51:32;;;;;;;;;;;;;;;;;;1921328;28;7042;-63
2021/12/13 05:52:31;;;;;;;;;;;;;;;;;;1920552;28;7049;-64
2021/12/13 05:53:36;;;;;;;;;;;;;;;;;;1920714;28;7096;-63
2021/12/13 05:54:38;;;;;;;;;;;;;;;;;;1920877;28;7088;-64
2021/12/13 05:55:50;;;;;;;;;;;;;;;;;;1921132;28;7013;-63
2021/12/13 05:56:50;;;;;;;;;;;;;;;;;;1922411;28;7009;-62
2021/12/13 05:57:50;;;;;;;;;;;;;;;;;;1922596;28;7042;-63
2021/12/13 05:58:48;;;;;;;;;;;;;;;;;;1922321;28;7100;-63
2021/12/13 06:00:09;;;;;;;;;;;;;;;;;;1919599;28;8467;-63
2021/12/13 06:01:14;;;;;;;;;;;;;;;;;;1914419;28;7025;-63
2021/12/13 06:02:18;;;;;;;;;;;;;;;;;;1914617;28;7013;-63
2021/12/13 06:03:18;;;;;;;;;;;;;;;;;;1913207;28;7049;-64
2021/12/13 06:04:36;;;;;;;;;;;;;;;;;;1919624;28;8039;-63
2021/12/13 06:05:38;;;;;;;;;;;;;;;;;;1921834;28;7050;-63
2021/12/13 06:06:54;;;;;;;;;;;;;;;;;;1922106;28;7005;-64
2021/12/13 06:07:57;;;;;;;;;;;;;;;;;;1922091;28;8099;-63
2021/12/13 06:08:57;;;;;;;;;;;;;;;;;;1916343;28;7038;-64
2021/12/13 06:10:00;;;;;;;;;;;;;;;;;;1914308;28;7042;-63
2021/12/13 06:11:03;;;;;;;;;;;;;;;;;;1914480;28;7034;-63
2021/12/13 06:12:04;;;;;;;;;;;;;;;;;;1906291;28;7017;-64
2021/12/13 06:13:06;;;;;;;;;;;;;;;;;;1911508;28;7088;-64
2021/12/13 06:14:15;;;;;;;;;;;;;;;;;;1922549;28;7523;-64
2021/12/13 06:15:15;;;;;;;;;;;;;;;;;;1920075;28;7017;-63
2021/12/13 06:16:29;;;;;;;;;;;;;;;;;;1914809;28;7109;-64
2021/12/13 06:17:29;;;;;;;;;;;;;;;;;;1909262;28;7005;-64
2021/12/13 06:18:34;;;;;;;;;;;;;;;;;;1906272;28;7006;-63
2021/12/13 06:19:34;;;;;;;;;;;;;;;;;;1914088;28;7060;-63
2021/12/13 06:20:34;;;;;;;;;;;;;;;;;;1916211;28;7148;-64
2021/12/13 06:21:32;;;;;;;;;;;;;;;;;;1920042;28;7017;-63
2021/12/13 06:22:31;;;;;;;;;;;;;;;;;;1913637;28;7005;-64
2021/12/13 06:23:31;;;;;;;;;;;;;;;;;;1914039;28;7026;-63
2021/12/13 06:24:32;;;;;;;;;;;;;;;;;;1919639;28;9694;-64
2021/12/13 06:25:29;;;;;;;;;;;;;;;;;;1913877;28;7092;-64
2021/12/13 06:26:30;;;;;;;;;;;;;;;;;;1914087;28;7373;-63
2021/12/13 06:27:39;;;;;;;;;;;;;;;;;;1914435;28;7010;-64
2021/12/13 06:28:39;;;;;;;;;;;;;;;;;;1914481;28;7010;-64
2021/12/13 06:29:48;;;;;;;;;;;;;;;;;;1914368;28;7319;-63
2021/12/13 06:30:52;;;;;;;;;;;;;;;;;;1913833;28;7005;-63
2021/12/13 06:31:49;;;;;;;;;;;;;;;;;;1914516;28;8019;-63
2021/12/13 06:32:53;;;;;;;;;;;;;;;;;;1914273;28;7332;-64
2021/12/13 06:33:51;;;;;;;;;;;;;;;;;;1913482;28;7009;-64
2021/12/13 06:34:48;;;;;;;;;;;;;;;;;;1913016;28;8031;-63
2021/12/13 06:35:48;;;;;;;;;;;;;;;;;;1914516;28;7013;-63
2021/12/13 06:36:52;;;;;;;;;;;;;;;;;;1915879;28;7009;-63
2021/12/13 06:37:49;;;;;;;;;;;;;;;;;;1921860;28;8131;-63
2021/12/13 06:38:49;;;;;;;;;;;;;;;;;;1921896;28;7096;-63
2021/12/13 06:39:48;;;;;;;;;;;;;;;;;;1922346;28;8131;-64
2021/12/13 06:40:48;;;;;;;;;;;;;;;;;;1921815;28;7005;-63
2021/12/13 06:41:47;;;;;;;;;;;;;;;;;;1913952;28;7088;-64
2021/12/13 06:42:45;;;;;;;;;;;;;;;;;;1913809;28;7005;-64
2021/12/13 06:43:42;;;;;;;;;;;;;;;;;;1913658;28;7038;-64
2021/12/13 06:44:45;;;;;;;;;;;;;;;;;;1914319;28;7148;-63
2021/12/13 06:45:42;;;;;;;;;;;;;;;;;;1914152;28;7009;-64
2021/12/13 06:46:43;;;;;;;;;;;;;;;;;;1914326;28;7109;-63
2021/12/13 06:47:47;;;;;;;;;;;;;;;;;;1914667;28;7009;-63
2021/12/13 06:48:46;;;;;;;;;;;;;;;;;;1914805;28;7035;-64
2021/12/13 06:49:57;;;;;;;;;;;;;;;;;;1914549;28;7380;-63
2021/12/13 06:50:54;;;;;;;;;;;;;;;;;;1914881;28;7093;-63
2021/12/13 06:52:14;;;;;;;;;;;;;;;;;;1912971;28;7092;-63
2021/12/13 06:53:18;;;;;;;;;;;;;;;;;;1909459;28;7100;-64
2021/12/13 06:54:25;;;;;;;;;;;;;;;;;;1915005;28;7033;-63
2021/12/13 06:55:24;;;;;;;;;;;;;;;;;;1913511;28;7117;-64
2021/12/13 06:56:26;;;;;;;;;;;;;;;;;;1913502;28;7097;-64
2021/12/13 06:57:23;;;;;;;;;;;;;;;;;;1921779;28;7013;-64
2021/12/13 06:58:28;;;;;;;;;;;;;;;;;;1921337;28;7096;-63
2021/12/13 06:59:28;;;;;;;;;;;;;;;;;;1921202;28;7017;-63
2021/12/13 07:00:29;;;;;;;;;;;;;;;;;;1913239;28;7041;-64
2021/12/13 07:01:28;;;;;;;;;;;;;;;;;;1913045;28;7076;-63
2021/12/13 07:02:26;;;;;;;;;;;;;;;;;;1914090;28;7013;-63
2021/12/13 07:03:32;;;;;;;;;;;;;;;;;;1914108;28;7010;-64
2021/12/13 07:04:58;;;;;;;;;;;;;;;;;;1919682;28;7029;-64
2021/12/13 07:05:58;;;;;;;;;;;;;;;;;;1912555;28;7101;-64
2021/12/13 07:07:06;;;;;;;;;;;;;;;;;;1921355;28;7009;-64
2021/12/13 07:08:06;;;;;;;;;;;;;;;;;;1927759;28;7226;-64
2021/12/13 07:09:10;;;;;;;;;;;;;;;;;;1920773;28;7009;-63
2021/12/13 07:10:15;;;;;;;;;;;;;;;;;;1912952;28;7009;-63
2021/12/13 07:11:20;;;;;;;;;;;;;;;;;;1914118;28;7388;-63
2021/12/13 07:12:18;;;;;;;;;;;;;;;;;;1912350;28;7093;-63
2021/12/13 07:13:22;;;;;;;;;;;;;;;;;;1914479;28;7009;-63
2021/12/13 07:14:22;;;;;;;;;;;;;;;;;;1914257;28;7121;-64
2021/12/13 07:15:22;;;;;;;;;;;;;;;;;;1914102;28;7009;-63
2021/12/13 07:16:25;;;;;;;;;;;;;;;;;;1916945;28;7137;-64
2021/12/13 07:17:28;;;;;;;;;;;;;;;;;;1921288;28;7123;-64
2021/12/13 07:18:30;;;;;;;;;;;;;;;;;;1920817;28;7045;-63
2021/12/13 07:19:30;;;;;;;;;;;;;;;;;;1921439;28;7296;-63
2021/12/13 07:20:35;;;;;;;;;;;;;;;;;;1913330;28;7013;-63
2021/12/13 07:21:34;;;;;;;;;;;;;;;;;;1913751;28;7025;-64
2021/12/13 07:22:32;;;;;;;;;;;;;;;;;;1913461;28;7092;-64
2021/12/13 07:23:49;;;;;;;;;;;;;;;;;;1913592;28;7089;-64
2021/12/13 07:24:50;;;;;;;;;;;;;;;;;;1913506;28;7025;-63